Time;durP1;ratioP1;P1;durP2;ratioP2;P2;SDS_P1;SDS_P2;PMS_P1;PMS_P2;Temp;Humidity;BMP_temperature;BMP_pressure;BME280_temperature;BME280_humidity;BME280_pressure;Samples;Min_cycle;Max_cycle;Signal;HPM_P1;HPM_P2
2022/12/14 00:01:37;;;;;;;12.90;7.65;;;;;;;;;;5047781;28;20054;-93
2022/12/14 00:04:04;;;;;;;14.52;7.90;;;;;;;;;;5047967;28;20069;-92
2022/12/14 00:06:32;;;;;;;14.35;7.40;;;;;;;;;;5047846;28;20053;-92
2022/12/14 00:09:01;;;;;;;13.60;7.53;;;;;;;;;;5047912;28;20068;-93
2022/12/14 00:11:29;;;;;;;13.98;7.70;;;;;;;;;;5047982;28;20185;-93
2022/12/14 00:13:57;;;;;;;13.43;7.72;;;;;;;;;;5047304;28;20395;-93
2022/12/14 00:16:26;;;;;;;16.42;8.50;;;;;;;;;;5047768;28;20064;-93
2022/12/14 00:18:54;;;;;;;14.48;7.55;;;;;;;;;;5047784;28;20414;-93
2022/12/14 00:21:22;;;;;;;16.15;8.68;;;;;;;;;;5047535;28;20058;-93
2022/12/14 00:23:50;;;;;;;16.27;8.20;;;;;;;;;;5047891;28;20129;-93
2022/12/14 00:26:23;;;;;;;13.93;7.65;;;;;;;;;;5052450;28;20059;-92
2022/12/14 00:28:51;;;;;;;16.27;8.70;;;;;;;;;;5068213;28;20073;-92
2022/12/14 00:31:19;;;;;;;13.75;7.57;;;;;;;;;;5046760;28;20065;-93
2022/12/14 00:33:49;;;;;;;14.25;6.90;;;;;;;;;;5046877;28;20045;-93
2022/12/14 00:36:16;;;;;;;14.95;8.20;;;;;;;;;;5046995;28;20517;-93
2022/12/14 00:38:44;;;;;;;14.85;7.93;;;;;;;;;;5047133;28;20077;-93
2022/12/14 00:41:11;;;;;;;15.15;8.38;;;;;;;;;;5046654;28;20053;-92
2022/12/14 00:43:38;;;;;;;23.75;9.45;;;;;;;;;;5046850;28;20077;-93
2022/12/14 00:46:06;;;;;;;20.63;8.38;;;;;;;;;;5047009;28;20052;-93
2022/12/14 00:48:33;;;;;;;10.88;7.07;;;;;;;;;;5046826;28;20132;-93
2022/12/14 00:51:00;;;;;;;11.05;6.93;;;;;;;;;;5046744;28;20054;-93
2022/12/14 00:53:28;;;;;;;13.75;7.88;;;;;;;;;;5046220;28;20050;-93
2022/12/14 00:55:55;;;;;;;14.10;7.55;;;;;;;;;;5046416;28;20054;-92
2022/12/14 00:58:23;;;;;;;14.23;7.43;;;;;;;;;;5046308;28;20062;-93
2022/12/14 01:01:01;;;;;;;14.80;8.00;;;;;;;;;;5046017;28;20469;-93
2022/12/14 01:03:28;;;;;;;13.43;7.25;;;;;;;;;;5046511;28;20538;-93
2022/12/14 01:05:56;;;;;;;14.45;8.25;;;;;;;;;;5046560;28;20057;-92
2022/12/14 01:08:24;;;;;;;13.18;7.55;;;;;;;;;;5046388;28;20058;-93
2022/12/14 01:10:52;;;;;;;14.05;7.63;;;;;;;;;;5046591;28;20054;-93
2022/12/14 01:13:19;;;;;;;14.90;7.72;;;;;;;;;;5046249;28;20060;-93
2022/12/14 01:15:46;;;;;;;13.07;7.70;;;;;;;;;;5046318;28;20509;-93
2022/12/14 01:18:13;;;;;;;13.93;7.47;;;;;;;;;;5046367;28;20494;-93
2022/12/14 01:20:42;;;;;;;11.55;7.43;;;;;;;;;;5045446;28;20046;-93
2022/12/14 01:23:10;;;;;;;11.32;7.10;;;;;;;;;;5046179;28;20056;-93
2022/12/14 01:25:37;;;;;;;14.63;7.97;;;;;;;;;;5046378;28;20058;-92
2022/12/14 01:28:04;;;;;;;13.38;7.47;;;;;;;;;;5046221;28;20056;-94
2022/12/14 01:30:31;;;;;;;13.63;8.70;;;;;;;;;;5046515;28;20058;-93
2022/12/14 01:32:59;;;;;;;18.73;8.75;;;;;;;;;;5045865;28;20548;-93
2022/12/14 01:35:26;;;;;;;16.67;8.82;;;;;;;;;;5045637;28;20072;-93
2022/12/14 01:37:54;;;;;;;16.33;8.43;;;;;;;;;;5046231;28;20104;-94
2022/12/14 01:40:21;;;;;;;16.20;8.18;;;;;;;;;;5045952;28;20050;-93
2022/12/14 01:42:48;;;;;;;12.68;7.57;;;;;;;;;;5045692;28;20136;-93
2022/12/14 01:45:17;;;;;;;10.60;7.00;;;;;;;;;;5046097;28;20058;-94
2022/12/14 01:47:48;;;;;;;11.38;7.72;;;;;;;;;;5045846;28;20405;-93
2022/12/14 01:50:21;;;;;;;13.70;7.38;;;;;;;;;;5045420;28;20045;-93
2022/12/14 01:52:52;;;;;;;13.00;7.45;;;;;;;;;;5045927;28;20050;-93
2022/12/14 01:55:25;;;;;;;11.25;6.95;;;;;;;;;;5045907;28;20049;-93
2022/12/14 01:57:54;;;;;;;13.00;7.45;;;;;;;;;;5045769;28;20042;-94
2022/12/14 02:00:22;;;;;;;11.70;6.85;;;;;;;;;;5045767;28;20054;-93
2022/12/14 02:02:55;;;;;;;14.70;7.75;;;;;;;;;;5046075;28;20050;-93
2022/12/14 02:05:23;;;;;;;12.38;7.70;;;;;;;;;;5045711;28;20054;-93
2022/12/14 02:07:52;;;;;;;12.52;7.47;;;;;;;;;;5046044;28;20054;-94
2022/12/14 02:10:20;;;;;;;15.02;8.23;;;;;;;;;;5047486;28;20502;-93
2022/12/14 02:12:49;;;;;;;12.68;7.13;;;;;;;;;;5049308;28;20048;-93
2022/12/14 02:15:16;;;;;;;14.63;7.20;;;;;;;;;;5049603;28;20057;-93
2022/12/14 02:17:45;;;;;;;12.95;7.60;;;;;;;;;;5049637;28;20050;-93
2022/12/14 02:20:13;;;;;;;14.55;8.10;;;;;;;;;;5049782;28;20062;-94
2022/12/14 02:22:44;;;;;;;14.05;7.53;;;;;;;;;;5049859;28;20060;-93
2022/12/14 02:25:23;;;;;;;13.63;7.70;;;;;;;;;;5049515;28;20052;-93
2022/12/14 02:28:08;;;;;;;11.75;7.53;;;;;;;;;;5049524;28;20060;-93
2022/12/14 02:30:40;;;;;;;14.18;7.90;;;;;;;;;;5049340;28;20410;-94
2022/12/14 02:33:19;;;;;;;11.77;6.17;;;;;;;;;;5049655;28;20502;-93
2022/12/14 02:35:58;;;;;;;17.38;8.63;;;;;;;;;;5049309;28;20054;-93
2022/12/14 02:38:44;;;;;;;16.00;7.97;;;;;;;;;;5049495;28;20402;-95
2022/12/14 02:41:15;;;;;;;14.80;7.57;;;;;;;;;;5049356;28;20064;-93
2022/12/14 02:44:00;;;;;;;14.32;8.10;;;;;;;;;;5055148;28;20053;-93
2022/12/14 02:46:40;;;;;;;14.40;8.27;;;;;;;;;;5054324;28;20457;-93
2022/12/14 02:49:32;;;;;;;12.93;8.25;;;;;;;;;;5048978;28;20052;-94
2022/12/14 02:51:59;;;;;;;15.23;7.65;;;;;;;;;;5048953;28;20124;-93
2022/12/14 02:54:34;;;;;;;13.80;8.05;;;;;;;;;;5048488;28;20053;-93
2022/12/14 02:57:10;;;;;;;12.80;7.28;;;;;;;;;;5048737;28;20062;-93
2022/12/14 02:59:38;;;;;;;13.65;7.20;;;;;;;;;;5048790;28;20061;-94
2022/12/14 03:02:05;;;;;;;16.45;8.43;;;;;;;;;;5048851;28;20052;-94
2022/12/14 03:04:44;;;;;;;12.93;7.60;;;;;;;;;;5048636;28;20080;-94
2022/12/14 03:07:27;;;;;;;12.48;7.18;;;;;;;;;;5048779;28;20509;-94
2022/12/14 03:09:54;;;;;;;10.63;6.00;;;;;;;;;;5048994;28;20057;-93
2022/12/14 03:12:21;;;;;;;9.80;6.70;;;;;;;;;;5048905;28;20064;-94
2022/12/14 03:14:52;;;;;;;12.35;6.70;;;;;;;;;;5048844;28;20490;-93
2022/12/14 03:17:22;;;;;;;13.38;7.60;;;;;;;;;;5048620;28;20053;-94
2022/12/14 03:20:01;;;;;;;14.30;7.40;;;;;;;;;;5048950;28;20058;-93
2022/12/14 03:22:32;;;;;;;15.02;7.72;;;;;;;;;;5048463;28;20042;-93
2022/12/14 03:25:02;;;;;;;14.55;7.80;;;;;;;;;;5048529;28;20069;-93
2022/12/14 03:27:32;;;;;;;16.17;7.88;;;;;;;;;;5048453;28;20069;-93
2022/12/14 03:30:04;;;;;;;14.55;7.38;;;;;;;;;;5048309;28;20398;-94
2022/12/14 03:32:32;;;;;;;11.95;7.80;;;;;;;;;;5048249;28;20053;-94
2022/12/14 03:35:03;;;;;;;10.88;6.57;;;;;;;;;;5048462;28;20406;-93
2022/12/14 03:37:42;;;;;;;12.52;7.28;;;;;;;;;;5048265;28;20069;-93
2022/12/14 03:40:11;;;;;;;15.52;7.10;;;;;;;;;;5048517;28;20052;-93
2022/12/14 03:42:41;;;;;;;12.23;6.90;;;;;;;;;;5046219;28;20593;-93
2022/12/14 03:45:18;;;;;;;11.77;7.63;;;;;;;;;;5046598;28;20073;-94
2022/12/14 03:47:51;;;;;;;11.50;6.32;;;;;;;;;;5048195;28;20061;-93
2022/12/14 03:50:24;;;;;;;13.98;7.07;;;;;;;;;;5047817;28;20058;-94
2022/12/14 03:53:11;;;;;;;12.68;6.57;;;;;;;;;;5047898;28;20048;-93
2022/12/14 03:55:39;;;;;;;12.30;6.72;;;;;;;;;;5014854;28;20050;-93
2022/12/14 03:58:11;;;;;;;13.27;7.28;;;;;;;;;;5047676;28;20042;-94
2022/12/14 04:00:38;;;;;;;;;;;;;;;;;;5048196;28;20064;-93
2022/12/14 04:03:11;;;;;;;11.32;6.93;;;;;;;;;;5031563;28;19929;-93
2022/12/14 04:05:38;;;;;;;;;;;;;;;;;;5048225;28;20108;-94
2022/12/14 04:08:19;;;;;;;10.98;6.68;;;;;;;;;;5030757;28;19921;-94
2022/12/14 04:19:16;;;;;;;9.88;6.55;;;;;;;;;;5015051;28;20061;-93
2022/12/14 04:21:54;;;;;;;13.68;6.32;;;;;;;;;;5046737;28;20136;-94
2022/12/14 04:27:31;;;;;;;10.38;6.95;;;;;;;;;;5015181;28;20046;-93
2022/12/14 04:29:59;;;;;;;8.82;6.13;;;;;;;;;;5047234;28;20430;-94
2022/12/14 04:32:33;;;;;;;15.80;7.60;;;;;;;;;;5046674;28;20131;-94
2022/12/14 04:35:04;;;;;;;40.92;20.15;;;;;;;;;;5046925;28;20046;-94
2022/12/14 04:37:31;;;;;;;36.05;17.73;;;;;;;;;;5030583;28;20050;-93
2022/12/14 04:40:04;;;;;;;13.93;8.95;;;;;;;;;;5030417;28;20053;-94
2022/12/14 04:42:39;;;;;;;12.98;6.82;;;;;;;;;;5046863;28;20062;-95
2022/12/14 04:45:09;;;;;;;11.45;6.18;;;;;;;;;;5047058;28;20046;-95
2022/12/14 04:47:40;;;;;;;11.32;6.45;;;;;;;;;;5046896;28;20431;-94
2022/12/14 04:50:12;;;;;;;11.57;6.88;;;;;;;;;;5046879;28;20056;-92
2022/12/14 04:52:43;;;;;;;12.02;7.28;;;;;;;;;;5046741;28;20483;-94
2022/12/14 04:55:14;;;;;;;11.55;8.32;;;;;;;;;;5046433;28;20038;-93
2022/12/14 04:57:41;;;;;;;13.10;9.45;;;;;;;;;;5046840;28;20054;-94
2022/12/14 05:00:09;;;;;;;13.20;7.35;;;;;;;;;;5046416;28;20060;-94
2022/12/14 05:02:43;;;;;;;10.88;6.82;;;;;;;;;;5046958;28;20045;-94
2022/12/14 05:05:29;;;;;;;8.90;6.28;;;;;;;;;;5053804;28;20065;-93
2022/12/14 05:08:09;;;;;;;11.55;6.88;;;;;;;;;;5058714;28;20064;-94
2022/12/14 05:10:40;;;;;;;11.35;6.65;;;;;;;;;;5048629;28;20053;-94
2022/12/14 05:13:14;;;;;;;14.73;6.68;;;;;;;;;;5046941;28;20049;-94
2022/12/14 05:15:43;;;;;;;10.70;6.35;;;;;;;;;;5046753;28;20052;-94
2022/12/14 05:18:10;;;;;;;11.10;5.82;;;;;;;;;;5046427;28;20049;-94
2022/12/14 05:20:37;;;;;;;10.00;6.63;;;;;;;;;;5046471;28;20057;-94
2022/12/14 05:23:05;;;;;;;11.65;6.78;;;;;;;;;;5046340;28;20048;-94
2022/12/14 05:25:32;;;;;;;13.88;6.47;;;;;;;;;;5046205;28;20498;-94
2022/12/14 05:27:59;;;;;;;10.40;6.85;;;;;;;;;;5046398;28;20056;-95
2022/12/14 05:30:26;;;;;;;12.50;7.13;;;;;;;;;;5046082;28;20137;-94
2022/12/14 05:32:54;;;;;;;14.60;7.35;;;;;;;;;;5046322;28;20042;-94
2022/12/14 05:35:21;;;;;;;21.00;7.28;;;;;;;;;;5045752;28;20046;-94
2022/12/14 05:37:48;;;;;;;28.80;7.93;;;;;;;;;;5046427;28;20046;-94
2022/12/14 05:40:16;;;;;;;22.95;7.55;;;;;;;;;;5046196;28;20060;-94
2022/12/14 05:42:43;;;;;;;36.08;8.00;;;;;;;;;;5047107;28;20073;-94
2022/12/14 05:45:17;;;;;;;43.85;9.68;;;;;;;;;;5045298;28;20077;-94
2022/12/14 05:47:44;;;;;;;35.40;9.07;;;;;;;;;;5048476;28;20061;-94
2022/12/14 05:50:11;;;;;;;49.03;10.30;;;;;;;;;;5046281;28;20074;-94
2022/12/14 05:52:38;;;;;;;34.78;12.40;;;;;;;;;;5029377;28;20064;-94
2022/12/14 05:55:06;;;;;;;30.17;13.88;;;;;;;;;;5028992;28;20060;-94
2022/12/14 05:57:33;;;;;;;31.80;15.10;;;;;;;;;;5028882;28;20410;-94
2022/12/14 06:00:00;;;;;;;29.77;13.52;;;;;;;;;;5029577;28;20064;-94
2022/12/14 06:02:30;;;;;;;29.42;13.20;;;;;;;;;;5028844;28;20049;-94
2022/12/14 06:04:57;;;;;;;23.73;11.73;;;;;;;;;;5029896;28;20498;-94
2022/12/14 06:07:25;;;;;;;25.85;11.25;;;;;;;;;;5029536;28;20045;-93
2022/12/14 06:09:54;;;;;;;22.25;10.32;;;;;;;;;;5029376;28;20124;-92
2022/12/14 06:12:21;;;;;;;27.05;10.75;;;;;;;;;;5029536;28;20421;-94
2022/12/14 06:14:49;;;;;;;20.52;9.80;;;;;;;;;;5029853;28;20054;-94
2022/12/14 06:17:16;;;;;;;22.85;10.75;;;;;;;;;;5046145;28;20536;-94
2022/12/14 06:19:43;;;;;;;21.90;10.15;;;;;;;;;;5042057;28;20040;-93
2022/12/14 06:22:16;;;;;;;;;;;;;;;;;;5029359;28;20053;-94
2022/12/14 06:24:43;;;;;;;19.95;9.73;;;;;;;;;;5029328;28;20020;-94
2022/12/14 06:27:10;;;;;;;21.25;11.07;;;;;;;;;;5045823;28;20053;-94
2022/12/14 06:29:37;;;;;;;18.00;9.65;;;;;;;;;;5029133;28;20054;-94
2022/12/14 06:32:05;;;;;;;21.10;10.98;;;;;;;;;;5045607;28;20056;-94
2022/12/14 06:34:32;;;;;;;16.77;9.05;;;;;;;;;;5028803;28;20064;-94
2022/12/14 06:37:05;;;;;;;20.98;9.13;;;;;;;;;;5044125;28;20050;-94
2022/12/14 06:39:32;;;;;;;27.77;13.25;;;;;;;;;;5045577;28;20510;-94
2022/12/14 06:42:00;;;;;;;24.33;11.85;;;;;;;;;;5029119;28;20064;-95
2022/12/14 06:44:27;;;;;;;22.05;11.00;;;;;;;;;;5029245;28;20054;-94
2022/12/14 06:46:54;;;;;;;24.70;12.20;;;;;;;;;;5029108;28;20046;-94
2022/12/14 06:49:22;;;;;;;18.83;10.70;;;;;;;;;;5028847;28;20478;-94
2022/12/14 06:51:49;;;;;;;30.70;13.65;;;;;;;;;;5028962;28;20049;-94
2022/12/14 06:54:16;;;;;;;37.60;16.00;;;;;;;;;;5029127;28;20054;-95
2022/12/14 06:56:45;;;;;;;42.33;18.25;;;;;;;;;;5031060;28;20054;-93
2022/12/14 06:59:13;;;;;;;28.63;14.30;;;;;;;;;;5032358;28;20075;-94
2022/12/14 07:01:42;;;;;;;21.73;11.00;;;;;;;;;;5032200;28;20053;-94
2022/12/14 07:04:10;;;;;;;24.25;12.98;;;;;;;;;;5032397;28;20064;-94
2022/12/14 07:06:38;;;;;;;30.83;14.27;;;;;;;;;;5032457;28;20520;-95
2022/12/14 07:09:07;;;;;;;38.72;16.75;;;;;;;;;;5032217;28;20058;-95
2022/12/14 07:11:34;;;;;;;38.95;16.20;;;;;;;;;;5032441;28;20061;-95
2022/12/14 07:14:04;;;;;;;33.42;14.82;;;;;;;;;;5032426;28;20058;-95
2022/12/14 07:16:33;;;;;;;25.63;12.57;;;;;;;;;;5032544;28;20049;-94
2022/12/14 07:19:00;;;;;;;28.30;14.60;;;;;;;;;;5032516;28;20053;-94
2022/12/14 07:21:28;;;;;;;32.03;14.63;;;;;;;;;;5033059;28;20057;-94
2022/12/14 07:23:55;;;;;;;25.98;14.02;;;;;;;;;;5033563;28;20050;-95
2022/12/14 07:26:23;;;;;;;25.88;12.82;;;;;;;;;;5050950;28;20057;-91
2022/12/14 07:28:51;;;;;;;30.13;12.60;;;;;;;;;;5037970;28;20049;-95
2022/12/14 07:31:20;;;;;;;21.58;10.50;;;;;;;;;;5031837;28;20064;-95
2022/12/14 07:33:47;;;;;;;17.05;9.65;;;;;;;;;;5031544;28;20497;-94
2022/12/14 07:36:18;;;;;;;16.58;9.35;;;;;;;;;;5048084;28;20056;-95
2022/12/14 07:38:47;;;;;;;16.88;9.48;;;;;;;;;;5048228;28;20552;-95
2022/12/14 07:41:16;;;;;;;15.35;9.02;;;;;;;;;;5047544;28;20057;-94
2022/12/14 07:43:49;;;;;;;14.38;9.02;;;;;;;;;;5045544;28;20053;-95
2022/12/14 07:46:18;;;;;;;21.25;12.02;;;;;;;;;;5046651;28;20061;-95
2022/12/14 07:48:46;;;;;;;29.65;16.73;;;;;;;;;;5030700;28;20049;-95
2022/12/14 07:51:15;;;;;;;62.22;32.60;;;;;;;;;;5030611;28;20073;-95
2022/12/14 07:53:42;;;;;;;43.95;21.67;;;;;;;;;;5030319;28;20045;-95
2022/12/14 07:56:14;;;;;;;29.38;14.60;;;;;;;;;;5030511;28;20076;-95
2022/12/14 07:58:41;;;;;;;48.22;28.65;;;;;;;;;;5029919;28;20053;-95
2022/12/14 08:01:10;;;;;;;22.90;13.05;;;;;;;;;;5030367;28;20058;-95
2022/12/14 08:03:37;;;;;;;24.00;12.30;;;;;;;;;;5030193;28;20081;-95
2022/12/14 08:06:05;;;;;;;24.33;12.18;;;;;;;;;;5030377;28;20410;-95
2022/12/14 08:08:33;;;;;;;24.90;11.63;;;;;;;;;;5028799;28;20506;-95
2022/12/14 08:11:01;;;;;;;21.40;10.88;;;;;;;;;;5030126;28;20045;-95
2022/12/14 08:13:28;;;;;;;24.85;12.70;;;;;;;;;;5030132;28;20054;-95
2022/12/14 08:15:56;;;;;;;24.75;12.32;;;;;;;;;;5030074;28;20137;-94
2022/12/14 08:18:23;;;;;;;27.05;13.73;;;;;;;;;;5030070;28;20068;-95
2022/12/14 08:20:51;;;;;;;25.83;13.20;;;;;;;;;;5030043;28;20060;-95
2022/12/14 08:23:20;;;;;;;24.55;13.35;;;;;;;;;;5030054;28;20100;-95
2022/12/14 08:25:52;;;;;;;30.55;16.67;;;;;;;;;;5029990;28;20129;-95
2022/12/14 08:28:19;;;;;;;37.78;20.42;;;;;;;;;;5030065;28;20060;-96
2022/12/14 08:30:46;;;;;;;32.50;17.23;;;;;;;;;;5030097;28;20133;-96
2022/12/14 08:33:13;;;;;;;34.45;15.63;;;;;;;;;;5030437;28;20403;-95
2022/12/14 08:35:44;;;;;;;25.92;13.10;;;;;;;;;;5030042;28;20069;-95
2022/12/14 08:38:11;;;;;;;17.55;9.82;;;;;;;;;;5029740;28;20054;-96
2022/12/14 08:40:39;;;;;;;16.52;8.25;;;;;;;;;;5046916;28;20061;-96
2022/12/14 08:43:36;;;;;;;16.52;8.48;;;;;;;;;;5077075;28;20420;-80
2022/12/14 08:46:12;;;;;;;23.20;8.07;;;;;;;;;;5075192;28;20064;-80
2022/12/14 08:48:49;;;;;;;31.25;18.75;;;;;;;;;;5075404;28;20056;-80
2022/12/14 08:51:25;;;;;;;42.38;22.25;;;;;;;;;;5074934;28;20052;-80
2022/12/14 08:54:10;;;;;;;38.03;19.58;;;;;;;;;;5076687;28;20048;-82
2022/12/14 08:56:47;;;;;;;29.27;14.85;;;;;;;;;;5073694;28;20388;-85
2022/12/14 08:59:23;;;;;;;33.67;16.50;;;;;;;;;;5074437;28;20090;-82
2022/12/14 09:02:32;;;;;;;28.95;15.55;;;;;;;;;;5074783;28;20041;-82
2022/12/14 09:05:04;;;;;;;30.25;14.27;;;;;;;;;;5074563;28;20506;-82
2022/12/14 09:07:36;;;;;;;27.08;13.13;;;;;;;;;;5074679;28;20058;-82
2022/12/14 09:10:13;;;;;;;30.10;15.27;;;;;;;;;;5074296;28;20045;-82
2022/12/14 09:12:45;;;;;;;24.02;13.25;;;;;;;;;;5074053;28;20106;-82
2022/12/14 09:15:15;;;;;;;24.08;13.20;;;;;;;;;;5074847;28;20528;-83
2022/12/14 09:18:02;;;;;;;31.83;16.63;;;;;;;;;;5073869;28;20114;-82
2022/12/14 09:20:53;;;;;;;30.17;15.18;;;;;;;;;;5073304;28;20135;-82
2022/12/14 09:23:56;;;;;;;36.72;17.27;;;;;;;;;;5073522;28;20441;-82
2022/12/14 09:26:29;;;;;;;29.63;15.73;;;;;;;;;;5073017;28;20148;-82
2022/12/14 09:29:01;;;;;;;45.35;21.85;;;;;;;;;;5073867;28;20047;-82
2022/12/14 09:31:51;;;;;;;37.08;21.83;;;;;;;;;;5073411;28;20139;-82
2022/12/14 09:34:39;;;;;;;38.78;18.85;;;;;;;;;;5073819;28;20052;-82
2022/12/14 09:37:25;;;;;;;41.08;19.77;;;;;;;;;;5073940;28;20116;-83
2022/12/14 09:40:10;;;;;;;40.30;17.67;;;;;;;;;;5070989;28;20053;-82
2022/12/14 09:43:03;;;;;;;32.28;16.55;;;;;;;;;;5056126;28;20080;-83
2022/12/14 09:45:36;;;;;;;36.22;15.70;;;;;;;;;;5072569;28;20151;-82
2022/12/14 09:48:06;;;;;;;34.97;14.65;;;;;;;;;;5072683;28;20408;-83
2022/12/14 09:50:39;;;;;;;37.42;14.77;;;;;;;;;;5073471;28;20056;-82
2022/12/14 09:53:30;;;;;;;27.48;13.23;;;;;;;;;;5067584;28;20135;-82
2022/12/14 09:56:10;;;;;;;25.53;13.47;;;;;;;;;;5059886;28;20056;-83
2022/12/14 09:59:04;;;;;;;38.00;17.58;;;;;;;;;;5059885;28;20288;-83
2022/12/14 10:02:04;;;;;;;32.40;17.88;;;;;;;;;;5059210;28;20439;-83
2022/12/14 10:05:13;;;;;;;36.25;17.67;;;;;;;;;;5060037;28;20555;-83
2022/12/14 10:07:52;;;;;;;30.33;15.30;;;;;;;;;;5060363;28;20041;-83
2022/12/14 10:10:42;;;;;;;34.53;16.90;;;;;;;;;;5059572;28;20128;-82
2022/12/14 10:13:38;;;;;;;31.63;15.70;;;;;;;;;;5061292;28;20136;-83
2022/12/14 10:16:07;;;;;;;34.10;15.98;;;;;;;;;;5052794;28;20536;-83
2022/12/14 10:18:43;;;;;;;28.13;14.98;;;;;;;;;;5060657;28;20049;-82
2022/12/14 10:21:43;;;;;;;27.08;13.45;;;;;;;;;;5060164;28;20045;-83
2022/12/14 10:24:20;;;;;;;30.05;13.55;;;;;;;;;;5061170;28;20067;-83
2022/12/14 10:26:55;;;;;;;41.72;19.00;;;;;;;;;;5058952;28;20045;-82
2022/12/14 10:29:46;;;;;;;36.15;19.27;;;;;;;;;;5043172;28;20049;-83
2022/12/14 10:32:27;;;;;;;35.35;17.90;;;;;;;;;;5060128;28;20073;-83
2022/12/14 10:35:25;;;;;;;33.50;15.18;;;;;;;;;;5057083;28;20136;-83
2022/12/14 10:38:21;;;;;;;;;;;;;;;;;;;;;
2022/12/14 10:40:50;;;;;;;38.70;16.90;;;;;;;;;;5066374;28;20053;-82
2022/12/14 10:43:43;;;;;;;34.42;16.00;;;;;;;;;;5060371;28;20045;-82
2022/12/14 10:46:23;;;;;;;39.42;16.40;;;;;;;;;;5042215;28;20087;-83
2022/12/14 10:48:57;;;;;;;38.17;17.85;;;;;;;;;;5059627;28;20055;-83
2022/12/14 10:51:28;;;;;;;34.53;16.75;;;;;;;;;;5059247;28;20044;-83
2022/12/14 10:54:08;;;;;;;37.00;17.42;;;;;;;;;;5060373;28;20045;-82
2022/12/14 10:56:50;;;;;;;36.53;18.02;;;;;;;;;;5059364;28;20434;-82
2022/12/14 10:59:38;;;;;;;37.55;17.02;;;;;;;;;;5057975;28;20049;-83
2022/12/14 11:02:35;;;;;;;34.58;18.60;;;;;;;;;;5059708;28;20098;-83
2022/12/14 11:05:35;;;;;;;39.42;18.38;;;;;;;;;;5057267;28;20045;-83
2022/12/14 11:08:44;;;;;;;52.47;21.20;;;;;;;;;;5058210;28;20083;-83
2022/12/14 11:11:29;;;;;;;65.82;28.48;;;;;;;;;;5058709;28;20071;-83
2022/12/14 11:14:08;;;;;;;84.80;40.75;;;;;;;;;;5058695;28;20057;-83
2022/12/14 11:17:00;;;;;;;58.25;27.38;;;;;;;;;;5057814;28;20127;-83
2022/12/14 11:19:36;;;;;;;50.95;22.20;;;;;;;;;;5058852;28;20052;-83
2022/12/14 11:22:17;;;;;;;43.60;21.60;;;;;;;;;;5059418;28;20049;-83
2022/12/14 11:24:55;;;;;;;52.25;28.42;;;;;;;;;;5057175;28;20048;-83
2022/12/14 11:27:28;;;;;;;86.80;45.00;;;;;;;;;;5057411;28;20486;-83
2022/12/14 11:30:06;;;;;;;171.63;76.75;;;;;;;;;;5054430;28;20049;-83
2022/12/14 11:32:40;;;;;;;274.88;113.72;;;;;;;;;;5058371;28;20052;-83
2022/12/14 11:35:27;;;;;;;;;;;;;;;;;;;;;
2022/12/14 11:38:14;;;;;;;37.67;18.52;;;;;;;;;;5059036;28;20216;-83
2022/12/14 11:40:44;;;;;;;31.27;15.73;;;;;;;;;;5059199;28;20452;-83
2022/12/14 11:43:40;;;;;;;45.97;29.98;;;;;;;;;;5057607;28;20059;-83
2022/12/14 11:46:16;;;;;;;29.73;18.92;;;;;;;;;;5045369;28;20131;-83
2022/12/14 11:48:48;;;;;;;23.23;13.95;;;;;;;;;;5058233;28;20174;-83
2022/12/14 11:51:21;;;;;;;33.97;17.55;;;;;;;;;;5040579;28;20052;-83
2022/12/14 11:54:08;;;;;;;28.55;16.02;;;;;;;;;;5057987;28;20053;-83
2022/12/14 11:56:39;;;;;;;30.70;15.95;;;;;;;;;;5058460;28;20075;-83
2022/12/14 11:59:18;;;;;;;29.75;17.75;;;;;;;;;;5057683;28;20049;-83
2022/12/14 12:02:18;;;;;;;27.75;16.08;;;;;;;;;;5058411;28;20059;-83
2022/12/14 12:04:52;;;;;;;24.77;14.30;;;;;;;;;;5055724;28;20114;-83
2022/12/14 12:07:42;;;;;;;29.38;15.63;;;;;;;;;;5057598;28;20125;-83
2022/12/14 12:10:28;;;;;;;26.13;15.10;;;;;;;;;;5058158;28;20087;-81
2022/12/14 12:13:07;;;;;;;26.92;15.23;;;;;;;;;;5058199;28;20076;-80
2022/12/14 12:15:46;;;;;;;28.60;17.52;;;;;;;;;;5057680;28;20044;-80
2022/12/14 12:18:39;;;;;;;29.65;18.63;;;;;;;;;;5056270;28;20045;-80
2022/12/14 12:21:24;;;;;;;45.22;26.92;;;;;;;;;;5055430;28;20107;-81
2022/12/14 12:27:48;;;;;;;48.47;30.98;;;;;;;;;;5058276;28;20502;-81
2022/12/14 12:41:00;;;;;;;45.50;28.38;;;;;;;;;;5104959;22;20071;-81
2022/12/14 12:43:27;;;;;;;;;;;;;;;;;;5063523;28;20045;-82
2022/12/14 12:45:57;;;;;;;27.65;16.00;;;;;;;;;;5063618;28;19927;-82
2022/12/14 12:48:37;;;;;;;29.52;17.55;;;;;;;;;;5061599;28;20624;-81
2022/12/14 12:51:07;;;;;;;30.02;18.05;;;;;;;;;;5062853;28;20041;-82
2022/12/14 12:53:36;;;;;;;33.58;18.33;;;;;;;;;;5062665;28;20053;-81
2022/12/14 12:56:21;;;;;;;31.20;17.60;;;;;;;;;;5061985;28;20116;-82
2022/12/14 12:58:50;;;;;;;29.23;16.88;;;;;;;;;;5061702;28;20045;-82
2022/12/14 13:01:27;;;;;;;33.22;18.95;;;;;;;;;;5061675;28;20112;-82
2022/12/14 13:04:11;;;;;;;33.47;18.55;;;;;;;;;;5062777;28;20145;-82
2022/12/14 13:06:47;;;;;;;34.30;18.92;;;;;;;;;;5062896;28;20048;-82
2022/12/14 13:09:20;;;;;;;30.85;18.15;;;;;;;;;;5061805;28;20415;-82
2022/12/14 13:11:48;;;;;;;30.05;18.75;;;;;;;;;;5063844;28;20053;-82
2022/12/14 13:14:42;;;;;;;29.45;17.73;;;;;;;;;;5064608;28;20105;-82
2022/12/14 13:17:37;;;;;;;31.27;19.52;;;;;;;;;;5064348;28;20048;-82
2022/12/14 13:20:25;;;;;;;31.92;18.27;;;;;;;;;;5067168;28;20049;-82
2022/12/14 13:23:06;;;;;;;31.27;18.02;;;;;;;;;;5048682;28;20048;-82
2022/12/14 13:26:14;;;;;;;30.88;18.20;;;;;;;;;;5063568;28;20069;-84
2022/12/14 13:29:16;;;;;;;31.60;18.77;;;;;;;;;;5065653;28;20084;-83
2022/12/14 13:31:51;;;;;;;37.38;21.88;;;;;;;;;;5067515;28;20075;-83
2022/12/14 13:34:23;;;;;;;43.38;26.05;;;;;;;;;;5067152;28;20053;-83
2022/12/14 13:37:04;;;;;;;74.35;45.42;;;;;;;;;;5068640;28;20084;-83
2022/12/14 13:39:36;;;;;;;33.47;20.20;;;;;;;;;;5069421;28;20049;-83
2022/12/14 13:42:20;;;;;;;45.00;26.30;;;;;;;;;;5070889;28;20041;-83
2022/12/14 13:44:58;;;;;;;34.92;20.75;;;;;;;;;;5068105;28;20053;-83
2022/12/14 13:47:32;;;;;;;34.67;21.08;;;;;;;;;;5069459;28;20051;-83
2022/12/14 13:50:41;;;;;;;34.70;18.88;;;;;;;;;;5068189;28;20029;-83
2022/12/14 13:53:34;;;;;;;32.90;18.10;;;;;;;;;;5083022;28;20049;-83
2022/12/14 13:56:06;;;;;;;35.80;19.20;;;;;;;;;;5068640;28;20045;-83
2022/12/14 13:58:47;;;;;;;33.10;20.67;;;;;;;;;;5067449;28;20440;-83
2022/12/14 14:01:37;;;;;;;34.10;19.77;;;;;;;;;;5068723;28;20055;-83
2022/12/14 14:04:28;;;;;;;34.58;19.80;;;;;;;;;;5067934;28;20049;-83
2022/12/14 14:07:17;;;;;;;36.72;19.98;;;;;;;;;;5084057;28;20094;-83
2022/12/14 14:10:00;;;;;;;35.05;19.65;;;;;;;;;;5066838;28;20041;-83
2022/12/14 14:12:42;;;;;;;35.75;20.40;;;;;;;;;;5068157;28;20149;-83
2022/12/14 14:15:21;;;;;;;34.40;19.98;;;;;;;;;;5052027;28;20516;-83
2022/12/14 14:17:54;;;;;;;32.35;18.85;;;;;;;;;;5068144;28;20045;-83
2022/12/14 14:20:37;;;;;;;32.25;18.80;;;;;;;;;;5068357;28;20060;-83
2022/12/14 14:23:14;;;;;;;36.78;20.63;;;;;;;;;;5067331;28;20049;-83
2022/12/14 14:26:09;;;;;;;34.22;19.63;;;;;;;;;;5067376;28;20060;-83
2022/12/14 14:29:05;;;;;;;43.03;24.10;;;;;;;;;;5067881;28;20044;-83
2022/12/14 14:32:04;;;;;;;35.97;23.52;;;;;;;;;;5067782;28;20132;-83
2022/12/14 14:34:37;;;;;;;41.50;23.50;;;;;;;;;;5032216;28;20096;-83
2022/12/14 14:37:15;;;;;;;40.40;22.73;;;;;;;;;;5068012;28;20075;-83
2022/12/14 14:39:45;;;;;;;43.45;22.58;;;;;;;;;;5065879;28;20057;-83
2022/12/14 14:42:26;;;;;;;53.97;28.55;;;;;;;;;;5067120;28;20049;-83
2022/12/14 14:45:20;;;;;;;45.47;24.88;;;;;;;;;;5064356;28;20037;-83
2022/12/14 14:47:54;;;;;;;44.33;23.10;;;;;;;;;;5066327;28;20068;-84
2022/12/14 14:50:34;;;;;;;46.97;26.80;;;;;;;;;;5066535;28;20079;-83
2022/12/14 14:53:17;;;;;;;52.78;27.17;;;;;;;;;;5067087;28;20116;-84
2022/12/14 14:56:00;;;;;;;45.00;24.85;;;;;;;;;;5067683;28;20067;-84
2022/12/14 14:58:42;;;;;;;47.00;25.92;;;;;;;;;;5065965;28;20064;-84
2022/12/14 15:01:20;;;;;;;41.55;23.25;;;;;;;;;;5066090;28;20136;-84
2022/12/14 15:03:49;;;;;;;48.40;24.70;;;;;;;;;;5064938;28;20052;-83
2022/12/14 15:06:32;;;;;;;45.85;24.50;;;;;;;;;;5066804;28;20076;-83
2022/12/14 15:09:12;;;;;;;52.30;24.30;;;;;;;;;;5066046;28;20052;-83
2022/12/14 15:11:39;;;;;;;;;;;;;;;;;;5066606;28;20499;-83
2022/12/14 15:14:12;;;;;;;46.05;23.02;;;;;;;;;;5069372;28;20024;-83
2022/12/14 15:16:53;;;;;;;44.38;24.67;;;;;;;;;;5069876;28;20044;-83
2022/12/14 15:19:32;;;;;;;48.58;24.08;;;;;;;;;;5065696;28;20527;-83
2022/12/14 15:22:03;;;;;;;43.20;23.85;;;;;;;;;;5066084;28;20049;-84
2022/12/14 15:24:34;;;;;;;43.80;23.75;;;;;;;;;;5066365;28;20100;-83
2022/12/14 15:27:11;;;;;;;46.85;24.70;;;;;;;;;;5067534;28;20049;-83
2022/12/14 15:29:43;;;;;;;46.08;24.75;;;;;;;;;;5066771;28;20065;-83
2022/12/14 15:32:16;;;;;;;48.30;23.23;;;;;;;;;;5065021;28;20076;-83
2022/12/14 15:34:58;;;;;;;40.55;22.83;;;;;;;;;;5066449;28;20056;-82
2022/12/14 15:37:44;;;;;;;44.88;24.10;;;;;;;;;;5067060;28;20135;-84